METAR UND TAF INFORMATION
LOWL 160850Z 11006KT 8000 FEW005 SCT150 BKN300 M05/M06 Q1016 R08/19//95 NOSIG

 FLUGHAFENKARTE

 RUNWAY INFORMATION
Runway 09 Runway length 9843 ft Runway width 197 ft
Runway elevation 978 ft Runway displaced threshold 821 ft Runway heading 87
Runway 27 Runway length 9843 ft Runway width 197 ft
Runway elevation 963 ft Runway displaced threshold 493 ft Runway heading 267
Runway 09L Runway length 2165 ft Runway width 148 ft
Runway elevation 971 ft Runway displaced threshold 0 ft Runway heading 87
Runway 27R Runway length 2165 ft Runway width 148 ft
Runway elevation 968 ft Runway displaced threshold 0 ft Runway heading 267

 AIRPORT FREQUENCIES
Type APP Name RADAR Frequency 129.625 MHZ
Type ATIS Name ATIS Frequency 128.125 MHZ
Type TWR Name TWR Frequency 118.8 MHZ

 AIRPORT NEAR NAVIGATION AIDS



Version 5.0.0: Changelog

Impressum | Datenschutzerklärung

Virtual Airlines Manager